sensor_id;sensor_type;location;lat;lon;timestamp;P1;durP1;ratioP1;P2;durP2;ratioP2
22005;SDS011;11167;46.988;15.470;2023-04-25T00:01:06;1.07;;;0.93;;
22005;SDS011;11167;46.988;15.470;2023-04-25T00:03:07;2.62;;;1.10;;
22005;SDS011;11167;46.988;15.470;2023-04-25T00:05:09;1.35;;;1.20;;
22005;SDS011;11167;46.988;15.470;2023-04-25T00:07:11;1.57;;;1.00;;
22005;SDS011;11167;46.988;15.470;2023-04-25T00:09:13;1.17;;;1.07;;
22005;SDS011;11167;46.988;15.470;2023-04-25T00:11:14;1.20;;;0.90;;
22005;SDS011;11167;46.988;15.470;2023-04-25T00:13:15;1.77;;;1.12;;
22005;SDS011;11167;46.988;15.470;2023-04-25T00:15:18;1.50;;;1.32;;
22005;SDS011;11167;46.988;15.470;2023-04-25T00:17:19;1.10;;;1.00;;
22005;SDS011;11167;46.988;15.470;2023-04-25T00:19:20;1.45;;;1.00;;
22005;SDS011;11167;46.988;15.470;2023-04-25T00:21:21;1.40;;;1.00;;
22005;SDS011;11167;46.988;15.470;2023-04-25T00:23:24;1.40;;;1.30;;
22005;SDS011;11167;46.988;15.470;2023-04-25T00:25:26;1.37;;;1.17;;
22005;SDS011;11167;46.988;15.470;2023-04-25T00:27:28;1.72;;;0.93;;
22005;SDS011;11167;46.988;15.470;2023-04-25T00:29:29;2.72;;;1.10;;
22005;SDS011;11167;46.988;15.470;2023-04-25T00:31:31;1.45;;;1.07;;
22005;SDS011;11167;46.988;15.470;2023-04-25T00:33:33;1.17;;;1.07;;
22005;SDS011;11167;46.988;15.470;2023-04-25T00:35:35;1.52;;;1.00;;
22005;SDS011;11167;46.988;15.470;2023-04-25T00:37:36;1.80;;;1.27;;
22005;SDS011;11167;46.988;15.470;2023-04-25T00:39:38;1.70;;;1.30;;
22005;SDS011;11167;46.988;15.470;2023-04-25T00:41:39;1.72;;;1.00;;
22005;SDS011;11167;46.988;15.470;2023-04-25T00:43:41;1.98;;;1.27;;
22005;SDS011;11167;46.988;15.470;2023-04-25T00:45:42;2.08;;;1.20;;
22005;SDS011;11167;46.988;15.470;2023-04-25T00:47:44;1.77;;;1.07;;
22005;SDS011;11167;46.988;15.470;2023-04-25T00:49:45;1.90;;;1.20;;
22005;SDS011;11167;46.988;15.470;2023-04-25T00:51:47;0.85;;;0.85;;
22005;SDS011;11167;46.988;15.470;2023-04-25T00:53:49;3.95;;;1.10;;
22005;SDS011;11167;46.988;15.470;2023-04-25T00:55:51;2.00;;;1.10;;
22005;SDS011;11167;46.988;15.470;2023-04-25T00:57:52;1.40;;;1.20;;
22005;SDS011;11167;46.988;15.470;2023-04-25T00:59:53;1.70;;;1.07;;
22005;SDS011;11167;46.988;15.470;2023-04-25T01:01:55;1.77;;;1.32;;
22005;SDS011;11167;46.988;15.470;2023-04-25T01:03:58;3.40;;;1.07;;
22005;SDS011;11167;46.988;15.470;2023-04-25T01:05:59;1.35;;;1.25;;
22005;SDS011;11167;46.988;15.470;2023-04-25T01:08:01;1.57;;;0.93;;
22005;SDS011;11167;46.988;15.470;2023-04-25T01:10:03;1.10;;;1.00;;
22005;SDS011;11167;46.988;15.470;2023-04-25T01:12:05;1.55;;;1.07;;
22005;SDS011;11167;46.988;15.470;2023-04-25T01:14:06;1.35;;;1.20;;
22005;SDS011;11167;46.988;15.470;2023-04-25T01:16:07;1.70;;;1.30;;
22005;SDS011;11167;46.988;15.470;2023-04-25T01:18:09;1.95;;;1.30;;
22005;SDS011;11167;46.988;15.470;2023-04-25T01:20:11;1.45;;;1.15;;
22005;SDS011;11167;46.988;15.470;2023-04-25T01:22:14;1.20;;;1.10;;
22005;SDS011;11167;46.988;15.470;2023-04-25T01:24:17;1.20;;;1.10;;
22005;SDS011;11167;46.988;15.470;2023-04-25T01:26:19;1.40;;;1.20;;
22005;SDS011;11167;46.988;15.470;2023-04-25T01:28:21;1.62;;;1.30;;
22005;SDS011;11167;46.988;15.470;2023-04-25T01:30:23;1.87;;;1.30;;
22005;SDS011;11167;46.988;15.470;2023-04-25T01:32:27;1.65;;;1.20;;
22005;SDS011;11167;46.988;15.470;2023-04-25T01:34:28;1.37;;;1.20;;
22005;SDS011;11167;46.988;15.470;2023-04-25T01:36:30;1.12;;;1.02;;
22005;SDS011;11167;46.988;15.470;2023-04-25T01:38:31;1.30;;;1.00;;
22005;SDS011;11167;46.988;15.470;2023-04-25T01:40:33;2.08;;;1.10;;
22005;SDS011;11167;46.988;15.470;2023-04-25T01:42:36;1.42;;;1.07;;
22005;SDS011;11167;46.988;15.470;2023-04-25T01:44:38;1.12;;;1.00;;
22005;SDS011;11167;46.988;15.470;2023-04-25T01:46:40;1.22;;;1.02;;
22005;SDS011;11167;46.988;15.470;2023-04-25T01:48:41;2.25;;;1.05;;
22005;SDS011;11167;46.988;15.470;2023-04-25T01:50:42;2.40;;;1.37;;
22005;SDS011;11167;46.988;15.470;2023-04-25T01:52:44;1.80;;;1.27;;
22005;SDS011;11167;46.988;15.470;2023-04-25T01:54:45;1.42;;;1.27;;
22005;SDS011;11167;46.988;15.470;2023-04-25T01:56:51;1.47;;;1.35;;
22005;SDS011;11167;46.988;15.470;2023-04-25T01:58:52;1.45;;;1.30;;
22005;SDS011;11167;46.988;15.470;2023-04-25T02:00:55;1.85;;;1.40;;
22005;SDS011;11167;46.988;15.470;2023-04-25T02:02:58;1.25;;;1.00;;
22005;SDS011;11167;46.988;15.470;2023-04-25T02:04:59;1.37;;;1.15;;
22005;SDS011;11167;46.988;15.470;2023-04-25T02:07:01;3.02;;;1.40;;
22005;SDS011;11167;46.988;15.470;2023-04-25T02:09:02;1.32;;;1.10;;
22005;SDS011;11167;46.988;15.470;2023-04-25T02:11:04;1.20;;;1.10;;
22005;SDS011;11167;46.988;15.470;2023-04-25T02:13:05;3.15;;;1.30;;
22005;SDS011;11167;46.988;15.470;2023-04-25T02:15:06;1.82;;;1.10;;
22005;SDS011;11167;46.988;15.470;2023-04-25T02:17:08;1.40;;;1.10;;
22005;SDS011;11167;46.988;15.470;2023-04-25T02:19:09;1.50;;;1.40;;
22005;SDS011;11167;46.988;15.470;2023-04-25T02:21:11;1.57;;;1.20;;
22005;SDS011;11167;46.988;15.470;2023-04-25T02:23:12;1.37;;;1.02;;
22005;SDS011;11167;46.988;15.470;2023-04-25T02:25:15;1.55;;;1.10;;
22005;SDS011;11167;46.988;15.470;2023-04-25T02:27:16;1.50;;;1.20;;
22005;SDS011;11167;46.988;15.470;2023-04-25T02:29:18;1.05;;;0.93;;
22005;SDS011;11167;46.988;15.470;2023-04-25T02:31:19;1.30;;;1.10;;
22005;SDS011;11167;46.988;15.470;2023-04-25T02:33:20;1.47;;;1.00;;
22005;SDS011;11167;46.988;15.470;2023-04-25T02:35:21;1.20;;;1.10;;
22005;SDS011;11167;46.988;15.470;2023-04-25T02:37:22;0.78;;;0.78;;
22005;SDS011;11167;46.988;15.470;2023-04-25T02:39:23;1.55;;;1.30;;
22005;SDS011;11167;46.988;15.470;2023-04-25T02:41:26;1.35;;;1.25;;
22005;SDS011;11167;46.988;15.470;2023-04-25T02:43:27;1.82;;;1.30;;
22005;SDS011;11167;46.988;15.470;2023-04-25T02:45:28;3.47;;;1.62;;
22005;SDS011;11167;46.988;15.470;2023-04-25T02:47:29;1.65;;;1.40;;
22005;SDS011;11167;46.988;15.470;2023-04-25T02:49:31;2.50;;;1.57;;
22005;SDS011;11167;46.988;15.470;2023-04-25T02:51:32;1.50;;;1.40;;
22005;SDS011;11167;46.988;15.470;2023-04-25T02:53:33;1.92;;;1.60;;
22005;SDS011;11167;46.988;15.470;2023-04-25T02:55:34;1.70;;;1.60;;
22005;SDS011;11167;46.988;15.470;2023-04-25T02:57:36;1.80;;;1.62;;
22005;SDS011;11167;46.988;15.470;2023-04-25T02:59:37;1.72;;;1.40;;
22005;SDS011;11167;46.988;15.470;2023-04-25T03:01:38;2.12;;;1.60;;
22005;SDS011;11167;46.988;15.470;2023-04-25T03:03:39;2.65;;;1.72;;
22005;SDS011;11167;46.988;15.470;2023-04-25T03:05:40;2.00;;;1.80;;
22005;SDS011;11167;46.988;15.470;2023-04-25T03:07:41;3.77;;;2.10;;
22005;SDS011;11167;46.988;15.470;2023-04-25T03:09:44;2.55;;;2.00;;
22005;SDS011;11167;46.988;15.470;2023-04-25T03:11:45;3.67;;;2.02;;
22005;SDS011;11167;46.988;15.470;2023-04-25T03:13:46;2.30;;;2.00;;
22005;SDS011;11167;46.988;15.470;2023-04-25T03:15:47;2.52;;;1.90;;
22005;SDS011;11167;46.988;15.470;2023-04-25T03:17:48;2.75;;;1.90;;
22005;SDS011;11167;46.988;15.470;2023-04-25T03:19:49;2.22;;;1.92;;
22005;SDS011;11167;46.988;15.470;2023-04-25T03:21:51;2.35;;;1.98;;
22005;SDS011;11167;46.988;15.470;2023-04-25T03:23:52;4.55;;;2.30;;
22005;SDS011;11167;46.988;15.470;2023-04-25T03:25:53;3.30;;;2.30;;
22005;SDS011;11167;46.988;15.470;2023-04-25T03:27:54;2.70;;;2.10;;
22005;SDS011;11167;46.988;15.470;2023-04-25T03:29:56;2.22;;;1.90;;
22005;SDS011;11167;46.988;15.470;2023-04-25T03:31:57;3.47;;;2.50;;
22005;SDS011;11167;46.988;15.470;2023-04-25T03:33:58;2.90;;;2.10;;
22005;SDS011;11167;46.988;15.470;2023-04-25T03:35:59;2.30;;;2.10;;
22005;SDS011;11167;46.988;15.470;2023-04-25T03:38:01;2.08;;;1.87;;
22005;SDS011;11167;46.988;15.470;2023-04-25T03:40:02;2.17;;;1.75;;
22005;SDS011;11167;46.988;15.470;2023-04-25T03:42:03;1.95;;;1.75;;
22005;SDS011;11167;46.988;15.470;2023-04-25T03:44:04;1.90;;;1.65;;
22005;SDS011;11167;46.988;15.470;2023-04-25T03:46:05;2.10;;;1.50;;
22005;SDS011;11167;46.988;15.470;2023-04-25T03:48:06;1.60;;;1.47;;
22005;SDS011;11167;46.988;15.470;2023-04-25T03:50:07;1.40;;;1.30;;
22005;SDS011;11167;46.988;15.470;2023-04-25T03:52:10;1.60;;;1.50;;
22005;SDS011;11167;46.988;15.470;2023-04-25T03:54:11;1.90;;;1.70;;
22005;SDS011;11167;46.988;15.470;2023-04-25T03:56:12;1.72;;;1.32;;
22005;SDS011;11167;46.988;15.470;2023-04-25T03:58:13;1.35;;;1.25;;
22005;SDS011;11167;46.988;15.470;2023-04-25T04:00:15;1.35;;;1.25;;
22005;SDS011;11167;46.988;15.470;2023-04-25T04:02:17;1.62;;;1.17;;
22005;SDS011;11167;46.988;15.470;2023-04-25T04:04:19;1.17;;;1.07;;
22005;SDS011;11167;46.988;15.470;2023-04-25T04:06:20;1.20;;;1.10;;
22005;SDS011;11167;46.988;15.470;2023-04-25T04:08:21;1.42;;;1.32;;
22005;SDS011;11167;46.988;15.470;2023-04-25T04:10:22;1.20;;;1.10;;
22005;SDS011;11167;46.988;15.470;2023-04-25T04:12:23;2.58;;;1.20;;
22005;SDS011;11167;46.988;15.470;2023-04-25T04:14:25;1.30;;;1.20;;
22005;SDS011;11167;46.988;15.470;2023-04-25T04:16:26;1.87;;;1.20;;
22005;SDS011;11167;46.988;15.470;2023-04-25T04:18:27;1.20;;;1.10;;
22005;SDS011;11167;46.988;15.470;2023-04-25T04:20:28;1.20;;;1.05;;
22005;SDS011;11167;46.988;15.470;2023-04-25T04:22:33;1.30;;;1.20;;
22005;SDS011;11167;46.988;15.470;2023-04-25T04:24:35;1.40;;;1.30;;
22005;SDS011;11167;46.988;15.470;2023-04-25T04:26:36;1.10;;;1.00;;
22005;SDS011;11167;46.988;15.470;2023-04-25T04:28:39;1.20;;;1.10;;
22005;SDS011;11167;46.988;15.470;2023-04-25T04:30:40;1.20;;;1.10;;
22005;SDS011;11167;46.988;15.470;2023-04-25T04:32:42;1.30;;;1.20;;
22005;SDS011;11167;46.988;15.470;2023-04-25T04:34:44;1.12;;;1.02;;
22005;SDS011;11167;46.988;15.470;2023-04-25T04:36:45;1.65;;;1.10;;
22005;SDS011;11167;46.988;15.470;2023-04-25T04:38:47;1.20;;;1.10;;
22005;SDS011;11167;46.988;15.470;2023-04-25T04:40:49;1.15;;;0.93;;
22005;SDS011;11167;46.988;15.470;2023-04-25T04:42:50;1.47;;;1.30;;
22005;SDS011;11167;46.988;15.470;2023-04-25T04:44:53;1.20;;;1.10;;
22005;SDS011;11167;46.988;15.470;2023-04-25T04:46:55;1.05;;;0.95;;
22005;SDS011;11167;46.988;15.470;2023-04-25T04:48:57;1.10;;;1.00;;
22005;SDS011;11167;46.988;15.470;2023-04-25T04:50:59;1.10;;;1.00;;
22005;SDS011;11167;46.988;15.470;2023-04-25T04:53:01;2.02;;;1.10;;
22005;SDS011;11167;46.988;15.470;2023-04-25T04:55:03;1.47;;;0.90;;
22005;SDS011;11167;46.988;15.470;2023-04-25T04:57:06;1.27;;;1.00;;
22005;SDS011;11167;46.988;15.470;2023-04-25T04:59:07;1.10;;;0.98;;
22005;SDS011;11167;46.988;15.470;2023-04-25T05:01:10;1.10;;;0.90;;
22005;SDS011;11167;46.988;15.470;2023-04-25T05:03:11;1.32;;;1.22;;
22005;SDS011;11167;46.988;15.470;2023-04-25T05:05:12;1.32;;;1.22;;
22005;SDS011;11167;46.988;15.470;2023-04-25T05:07:13;1.60;;;1.40;;
22005;SDS011;11167;46.988;15.470;2023-04-25T05:09:15;1.30;;;1.20;;
22005;SDS011;11167;46.988;15.470;2023-04-25T05:11:16;1.47;;;1.25;;
22005;SDS011;11167;46.988;15.470;2023-04-25T05:13:17;1.20;;;1.10;;
22005;SDS011;11167;46.988;15.470;2023-04-25T05:15:18;1.77;;;1.52;;
22005;SDS011;11167;46.988;15.470;2023-04-25T05:17:19;1.60;;;1.37;;
22005;SDS011;11167;46.988;15.470;2023-04-25T05:19:22;1.40;;;1.30;;
22005;SDS011;11167;46.988;15.470;2023-04-25T05:21:24;2.37;;;1.25;;
22005;SDS011;11167;46.988;15.470;2023-04-25T05:23:26;1.62;;;1.30;;
22005;SDS011;11167;46.988;15.470;2023-04-25T05:25:28;1.75;;;1.60;;
22005;SDS011;11167;46.988;15.470;2023-04-25T05:27:29;2.08;;;1.60;;
22005;SDS011;11167;46.988;15.470;2023-04-25T05:29:30;1.27;;;1.15;;
22005;SDS011;11167;46.988;15.470;2023-04-25T05:31:32;1.57;;;1.42;;
22005;SDS011;11167;46.988;15.470;2023-04-25T05:33:33;1.50;;;1.40;;
22005;SDS011;11167;46.988;15.470;2023-04-25T05:35:34;1.50;;;1.40;;
22005;SDS011;11167;46.988;15.470;2023-04-25T05:37:35;1.35;;;1.25;;
22005;SDS011;11167;46.988;15.470;2023-04-25T05:39:36;2.10;;;1.45;;
22005;SDS011;11167;46.988;15.470;2023-04-25T05:41:37;1.47;;;1.37;;
22005;SDS011;11167;46.988;15.470;2023-04-25T05:43:38;1.45;;;1.35;;
22005;SDS011;11167;46.988;15.470;2023-04-25T05:45:39;1.27;;;1.17;;
22005;SDS011;11167;46.988;15.470;2023-04-25T05:47:41;1.57;;;1.32;;
22005;SDS011;11167;46.988;15.470;2023-04-25T05:49:42;1.90;;;1.30;;
22005;SDS011;11167;46.988;15.470;2023-04-25T05:51:43;1.50;;;1.40;;
22005;SDS011;11167;46.988;15.470;2023-04-25T05:53:44;1.27;;;1.17;;
22005;SDS011;11167;46.988;15.470;2023-04-25T05:55:46;1.62;;;1.52;;
22005;SDS011;11167;46.988;15.470;2023-04-25T05:57:47;1.32;;;1.22;;
22005;SDS011;11167;46.988;15.470;2023-04-25T05:59:48;1.30;;;1.20;;
22005;SDS011;11167;46.988;15.470;2023-04-25T06:01:50;1.30;;;1.20;;
22005;SDS011;11167;46.988;15.470;2023-04-25T06:03:52;1.50;;;1.40;;
22005;SDS011;11167;46.988;15.470;2023-04-25T06:05:53;1.40;;;1.30;;
22005;SDS011;11167;46.988;15.470;2023-04-25T06:07:54;1.67;;;1.40;;
22005;SDS011;11167;46.988;15.470;2023-04-25T06:09:55;1.65;;;1.37;;
22005;SDS011;11167;46.988;15.470;2023-04-25T06:11:56;1.40;;;1.30;;
22005;SDS011;11167;46.988;15.470;2023-04-25T06:13:57;1.40;;;1.20;;
22005;SDS011;11167;46.988;15.470;2023-04-25T06:15:58;1.90;;;1.40;;
22005;SDS011;11167;46.988;15.470;2023-04-25T06:17:59;1.77;;;1.50;;
22005;SDS011;11167;46.988;15.470;2023-04-25T06:20:01;1.37;;;1.10;;
22005;SDS011;11167;46.988;15.470;2023-04-25T06:22:02;1.57;;;1.30;;
22005;SDS011;11167;46.988;15.470;2023-04-25T06:24:04;1.50;;;1.40;;
22005;SDS011;11167;46.988;15.470;2023-04-25T06:26:06;1.42;;;1.30;;
22005;SDS011;11167;46.988;15.470;2023-04-25T06:28:07;1.30;;;1.20;;
22005;SDS011;11167;46.988;15.470;2023-04-25T06:30:08;1.57;;;1.30;;
22005;SDS011;11167;46.988;15.470;2023-04-25T06:32:13;2.08;;;1.50;;
22005;SDS011;11167;46.988;15.470;2023-04-25T06:34:15;2.05;;;1.60;;
22005;SDS011;11167;46.988;15.470;2023-04-25T06:36:16;1.77;;;1.55;;
22005;SDS011;11167;46.988;15.470;2023-04-25T06:38:17;2.00;;;1.30;;
22005;SDS011;11167;46.988;15.470;2023-04-25T06:40:18;1.55;;;1.40;;
22005;SDS011;11167;46.988;15.470;2023-04-25T06:42:19;2.27;;;1.50;;
22005;SDS011;11167;46.988;15.470;2023-04-25T06:44:21;1.80;;;1.60;;
22005;SDS011;11167;46.988;15.470;2023-04-25T06:46:23;1.30;;;1.20;;
22005;SDS011;11167;46.988;15.470;2023-04-25T06:48:25;1.42;;;1.32;;
22005;SDS011;11167;46.988;15.470;2023-04-25T06:50:26;2.55;;;1.45;;
22005;SDS011;11167;46.988;15.470;2023-04-25T06:52:27;1.77;;;1.50;;
22005;SDS011;11167;46.988;15.470;2023-04-25T06:54:28;1.75;;;1.47;;
22005;SDS011;11167;46.988;15.470;2023-04-25T06:56:30;1.75;;;1.30;;
22005;SDS011;11167;46.988;15.470;2023-04-25T06:58:31;1.40;;;1.17;;
22005;SDS011;11167;46.988;15.470;2023-04-25T07:00:32;1.67;;;1.45;;
22005;SDS011;11167;46.988;15.470;2023-04-25T07:02:34;1.32;;;1.20;;
22005;SDS011;11167;46.988;15.470;2023-04-25T07:04:35;1.62;;;1.25;;
22005;SDS011;11167;46.988;15.470;2023-04-25T07:06:36;1.50;;;1.40;;
22005;SDS011;11167;46.988;15.470;2023-04-25T07:08:39;1.40;;;1.10;;
22005;SDS011;11167;46.988;15.470;2023-04-25T07:10:40;1.50;;;1.30;;
22005;SDS011;11167;46.988;15.470;2023-04-25T07:12:41;1.20;;;1.10;;
22005;SDS011;11167;46.988;15.470;2023-04-25T07:14:43;1.47;;;1.10;;
22005;SDS011;11167;46.988;15.470;2023-04-25T07:16:44;1.77;;;1.47;;
22005;SDS011;11167;46.988;15.470;2023-04-25T07:18:45;1.50;;;1.40;;
22005;SDS011;11167;46.988;15.470;2023-04-25T07:20:46;1.40;;;1.20;;
22005;SDS011;11167;46.988;15.470;2023-04-25T07:22:47;1.90;;;1.20;;
22005;SDS011;11167;46.988;15.470;2023-04-25T07:24:48;1.57;;;1.10;;
22005;SDS011;11167;46.988;15.470;2023-04-25T07:26:49;1.20;;;1.10;;
22005;SDS011;11167;46.988;15.470;2023-04-25T07:28:50;1.32;;;1.10;;
22005;SDS011;11167;46.988;15.470;2023-04-25T07:30:51;1.65;;;1.25;;
22005;SDS011;11167;46.988;15.470;2023-04-25T07:32:52;1.20;;;1.10;;
22005;SDS011;11167;46.988;15.470;2023-04-25T07:34:53;1.50;;;1.40;;
22005;SDS011;11167;46.988;15.470;2023-04-25T07:36:54;1.42;;;1.05;;
22005;SDS011;11167;46.988;15.470;2023-04-25T07:38:55;1.15;;;1.02;;
22005;SDS011;11167;46.988;15.470;2023-04-25T07:40:57;1.47;;;1.30;;
22005;SDS011;11167;46.988;15.470;2023-04-25T07:42:58;1.30;;;1.10;;
22005;SDS011;11167;46.988;15.470;2023-04-25T07:45:00;1.55;;;1.05;;
22005;SDS011;11167;46.988;15.470;2023-04-25T07:47:01;1.20;;;1.10;;
22005;SDS011;11167;46.988;15.470;2023-04-25T07:49:03;1.77;;;1.30;;
22005;SDS011;11167;46.988;15.470;2023-04-25T07:51:04;1.35;;;1.20;;
22005;SDS011;11167;46.988;15.470;2023-04-25T07:53:06;1.90;;;1.30;;
22005;SDS011;11167;46.988;15.470;2023-04-25T07:55:07;1.07;;;0.90;;
22005;SDS011;11167;46.988;15.470;2023-04-25T07:57:08;1.27;;;1.00;;
22005;SDS011;11167;46.988;15.470;2023-04-25T07:59:09;1.62;;;1.07;;
22005;SDS011;11167;46.988;15.470;2023-04-25T08:01:11;1.27;;;1.07;;
22005;SDS011;11167;46.988;15.470;2023-04-25T08:03:12;1.77;;;1.22;;
22005;SDS011;11167;46.988;15.470;2023-04-25T08:05:13;1.30;;;1.20;;
22005;SDS011;11167;46.988;15.470;2023-04-25T08:07:15;1.37;;;1.20;;
22005;SDS011;11167;46.988;15.470;2023-04-25T08:09:16;1.90;;;1.10;;
22005;SDS011;11167;46.988;15.470;2023-04-25T08:11:17;2.22;;;1.00;;
22005;SDS011;11167;46.988;15.470;2023-04-25T08:13:19;2.02;;;1.05;;
22005;SDS011;11167;46.988;15.470;2023-04-25T08:15:20;1.25;;;1.05;;
22005;SDS011;11167;46.988;15.470;2023-04-25T08:17:21;1.95;;;1.10;;
22005;SDS011;11167;46.988;15.470;2023-04-25T08:19:22;2.00;;;0.93;;
22005;SDS011;11167;46.988;15.470;2023-04-25T08:21:23;1.42;;;1.00;;
22005;SDS011;11167;46.988;15.470;2023-04-25T08:23:24;0.88;;;0.80;;
22005;SDS011;11167;46.988;15.470;2023-04-25T08:25:25;1.05;;;0.82;;
22005;SDS011;11167;46.988;15.470;2023-04-25T08:27:26;1.20;;;1.00;;
22005;SDS011;11167;46.988;15.470;2023-04-25T08:29:27;1.40;;;0.82;;
22005;SDS011;11167;46.988;15.470;2023-04-25T08:31:28;1.65;;;1.00;;
22005;SDS011;11167;46.988;15.470;2023-04-25T08:33:30;1.05;;;0.95;;
22005;SDS011;11167;46.988;15.470;2023-04-25T08:35:31;0.90;;;0.70;;
22005;SDS011;11167;46.988;15.470;2023-04-25T08:37:34;4.40;;;0.95;;
22005;SDS011;11167;46.988;15.470;2023-04-25T08:39:35;1.00;;;0.82;;
22005;SDS011;11167;46.988;15.470;2023-04-25T08:41:37;0.68;;;0.68;;
22005;SDS011;11167;46.988;15.470;2023-04-25T08:43:38;1.77;;;0.90;;
22005;SDS011;11167;46.988;15.470;2023-04-25T08:45:43;0.90;;;0.70;;
22005;SDS011;11167;46.988;15.470;2023-04-25T08:47:45;1.40;;;0.80;;
22005;SDS011;11167;46.988;15.470;2023-04-25T08:49:49;1.12;;;0.80;;
22005;SDS011;11167;46.988;15.470;2023-04-25T08:51:52;0.68;;;0.68;;
22005;SDS011;11167;46.988;15.470;2023-04-25T08:54:02;0.95;;;0.60;;
22005;SDS011;11167;46.988;15.470;2023-04-25T08:56:03;0.60;;;0.60;;
22005;SDS011;11167;46.988;15.470;2023-04-25T08:58:04;0.72;;;0.60;;
22005;SDS011;11167;46.988;15.470;2023-04-25T09:00:07;1.25;;;0.85;;
22005;SDS011;11167;46.988;15.470;2023-04-25T09:02:10;0.85;;;0.55;;
22005;SDS011;11167;46.988;15.470;2023-04-25T09:04:12;0.93;;;0.60;;
22005;SDS011;11167;46.988;15.470;2023-04-25T09:06:14;1.12;;;0.65;;
22005;SDS011;11167;46.988;15.470;2023-04-25T09:08:17;0.70;;;0.70;;
22005;SDS011;11167;46.988;15.470;2023-04-25T09:10:18;2.52;;;0.70;;
22005;SDS011;11167;46.988;15.470;2023-04-25T09:12:19;1.02;;;0.60;;
22005;SDS011;11167;46.988;15.470;2023-04-25T09:14:21;1.12;;;0.82;;
22005;SDS011;11167;46.988;15.470;2023-04-25T09:16:23;1.15;;;0.78;;
22005;SDS011;11167;46.988;15.470;2023-04-25T09:18:30;1.25;;;0.70;;
22005;SDS011;11167;46.988;15.470;2023-04-25T09:22:31;1.55;;;0.70;;
22005;SDS011;11167;46.988;15.470;2023-04-25T09:26:44;1.65;;;0.93;;
22005;SDS011;11167;46.988;15.470;2023-04-25T09:28:46;0.95;;;0.70;;
22005;SDS011;11167;46.988;15.470;2023-04-25T09:30:48;0.93;;;0.70;;
22005;SDS011;11167;46.988;15.470;2023-04-25T09:32:49;2.52;;;0.55;;
22005;SDS011;11167;46.988;15.470;2023-04-25T09:34:51;1.35;;;0.70;;
22005;SDS011;11167;46.988;15.470;2023-04-25T09:36:55;2.08;;;0.72;;
22005;SDS011;11167;46.988;15.470;2023-04-25T09:38:57;1.30;;;0.70;;
22005;SDS011;11167;46.988;15.470;2023-04-25T09:41:01;1.37;;;0.70;;
22005;SDS011;11167;46.988;15.470;2023-04-25T09:43:02;1.67;;;0.60;;
22005;SDS011;11167;46.988;15.470;2023-04-25T09:45:07;1.02;;;0.70;;
22005;SDS011;11167;46.988;15.470;2023-04-25T09:47:11;0.98;;;0.60;;
22005;SDS011;11167;46.988;15.470;2023-04-25T09:49:14;1.07;;;0.57;;
22005;SDS011;11167;46.988;15.470;2023-04-25T09:51:15;0.80;;;0.80;;
22005;SDS011;11167;46.988;15.470;2023-04-25T09:53:16;1.32;;;0.68;;
22005;SDS011;11167;46.988;15.470;2023-04-25T09:55:17;1.57;;;0.60;;
22005;SDS011;11167;46.988;15.470;2023-04-25T09:57:20;0.62;;;0.62;;
22005;SDS011;11167;46.988;15.470;2023-04-25T09:59:22;0.80;;;0.45;;
22005;SDS011;11167;46.988;15.470;2023-04-25T10:01:24;0.55;;;0.50;;
22005;SDS011;11167;46.988;15.470;2023-04-25T10:03:26;1.12;;;0.70;;
22005;SDS011;11167;46.988;15.470;2023-04-25T10:05:34;0.70;;;0.60;;
22005;SDS011;11167;46.988;15.470;2023-04-25T10:07:36;1.55;;;0.60;;
22005;SDS011;11167;46.988;15.470;2023-04-25T10:09:39;0.40;;;0.40;;
22005;SDS011;11167;46.988;15.470;2023-04-25T10:11:41;0.75;;;0.70;;
22005;SDS011;11167;46.988;15.470;2023-04-25T10:13:43;1.27;;;0.70;;
22005;SDS011;11167;46.988;15.470;2023-04-25T10:15:46;0.60;;;0.60;;
22005;SDS011;11167;46.988;15.470;2023-04-25T10:17:48;0.60;;;0.60;;
22005;SDS011;11167;46.988;15.470;2023-04-25T10:19:51;0.57;;;0.50;;
22005;SDS011;11167;46.988;15.470;2023-04-25T10:24:09;1.02;;;0.80;;
22005;SDS011;11167;46.988;15.470;2023-04-25T10:26:10;0.82;;;0.70;;
22005;SDS011;11167;46.988;15.470;2023-04-25T10:28:13;1.80;;;0.70;;
22005;SDS011;11167;46.988;15.470;2023-04-25T10:30:14;0.72;;;0.53;;
22005;SDS011;11167;46.988;15.470;2023-04-25T10:32:15;1.20;;;0.78;;
22005;SDS011;11167;46.988;15.470;2023-04-25T10:34:17;1.05;;;0.60;;
22005;SDS011;11167;46.988;15.470;2023-04-25T10:36:20;1.30;;;0.62;;
22005;SDS011;11167;46.988;15.470;2023-04-25T10:38:23;0.93;;;0.65;;
22005;SDS011;11167;46.988;15.470;2023-04-25T10:40:24;0.72;;;0.62;;
22005;SDS011;11167;46.988;15.470;2023-04-25T10:42:25;1.72;;;0.82;;
22005;SDS011;11167;46.988;15.470;2023-04-25T10:44:27;0.60;;;0.60;;
22005;SDS011;11167;46.988;15.470;2023-04-25T10:46:30;0.70;;;0.60;;
22005;SDS011;11167;46.988;15.470;2023-04-25T10:48:35;1.65;;;0.60;;
22005;SDS011;11167;46.988;15.470;2023-04-25T10:50:38;1.82;;;0.68;;
22005;SDS011;11167;46.988;15.470;2023-04-25T10:52:40;1.57;;;0.60;;
22005;SDS011;11167;46.988;15.470;2023-04-25T10:55:02;1.70;;;0.70;;
22005;SDS011;11167;46.988;15.470;2023-04-25T10:56:48;0.90;;;0.60;;
22005;SDS011;11167;46.988;15.470;2023-04-25T10:58:51;0.88;;;0.78;;
22005;SDS011;11167;46.988;15.470;2023-04-25T11:00:52;1.35;;;0.80;;
22005;SDS011;11167;46.988;15.470;2023-04-25T11:02:57;1.05;;;0.70;;
22005;SDS011;11167;46.988;15.470;2023-04-25T11:05:00;0.98;;;0.50;;
22005;SDS011;11167;46.988;15.470;2023-04-25T11:09:23;1.17;;;0.70;;
22005;SDS011;11167;46.988;15.470;2023-04-25T11:11:25;0.98;;;0.60;;
22005;SDS011;11167;46.988;15.470;2023-04-25T11:13:29;1.15;;;1.00;;
22005;SDS011;11167;46.988;15.470;2023-04-25T11:17:32;1.22;;;0.70;;
22005;SDS011;11167;46.988;15.470;2023-04-25T11:19:34;1.50;;;0.60;;
22005;SDS011;11167;46.988;15.470;2023-04-25T11:21:35;0.90;;;0.68;;
22005;SDS011;11167;46.988;15.470;2023-04-25T11:23:37;0.60;;;0.60;;
22005;SDS011;11167;46.988;15.470;2023-04-25T11:25:38;0.60;;;0.60;;
22005;SDS011;11167;46.988;15.470;2023-04-25T11:27:55;1.05;;;0.78;;
22005;SDS011;11167;46.988;15.470;2023-04-25T11:29:57;0.70;;;0.60;;
22005;SDS011;11167;46.988;15.470;2023-04-25T11:31:58;0.80;;;0.75;;
22005;SDS011;11167;46.988;15.470;2023-04-25T11:34:01;0.60;;;0.60;;
22005;SDS011;11167;46.988;15.470;2023-04-25T11:36:03;1.62;;;0.70;;
22005;SDS011;11167;46.988;15.470;2023-04-25T11:38:05;0.72;;;0.70;;
22005;SDS011;11167;46.988;15.470;2023-04-25T11:40:07;0.60;;;0.60;;
22005;SDS011;11167;46.988;15.470;2023-04-25T11:42:10;1.17;;;0.85;;
22005;SDS011;11167;46.988;15.470;2023-04-25T11:44:12;1.57;;;0.72;;
22005;SDS011;11167;46.988;15.470;2023-04-25T11:46:18;0.95;;;0.70;;
22005;SDS011;11167;46.988;15.470;2023-04-25T11:48:20;1.70;;;0.72;;
22005;SDS011;11167;46.988;15.470;2023-04-25T11:50:22;0.50;;;0.50;;
22005;SDS011;11167;46.988;15.470;2023-04-25T11:52:23;0.82;;;0.70;;
22005;SDS011;11167;46.988;15.470;2023-04-25T11:54:24;0.70;;;0.50;;
22005;SDS011;11167;46.988;15.470;2023-04-25T11:56:26;0.82;;;0.65;;
22005;SDS011;11167;46.988;15.470;2023-04-25T11:58:28;0.50;;;0.50;;
22005;SDS011;11167;46.988;15.470;2023-04-25T12:00:30;0.72;;;0.60;;
22005;SDS011;11167;46.988;15.470;2023-04-25T12:02:31;1.95;;;0.60;;
22005;SDS011;11167;46.988;15.470;2023-04-25T12:04:37;0.57;;;0.50;;
22005;SDS011;11167;46.988;15.470;2023-04-25T12:06:41;0.82;;;0.55;;
22005;SDS011;11167;46.988;15.470;2023-04-25T12:09:02;1.57;;;0.65;;
22005;SDS011;11167;46.988;15.470;2023-04-25T12:11:05;0.78;;;0.62;;
22005;SDS011;11167;46.988;15.470;2023-04-25T12:13:17;0.82;;;0.60;;